Latest Coastal Weather Observations for Albion Park

IDN60701

Issued at 5:21 am EDT Thursday 11 February 2016 (issued every 10 minutes, with the page automatically refreshed every 10 minutes)

About coastal observations | Map of coastal stations | Coastal observations for NSW | Marine services | Other Formats
Station Details ID: 068241 Name: WOLLONGONG AIRPORT Lat: -34.56 Lon: 150.79 Height: 8.0 m
Data from the previous 72 hours. | See also: Recent months at Albion Park
Date/Time
EDT
Temp

°C
Wind Pressure Rain
since 9am
mm
Weather Cloud Vis
km
Sea
Height
m
Swell
Dir
 
Speed
knots
Gust
knots
hPa Trend Height
m
Period
s
Dir
11/05:00am 17.0 W 4 5 1013.6 - 0.0 - - 10 - - - -
11/04:30am 17.1 W 3 4 1013.6 - 0.0 - - 10 - - - -
11/04:00am 17.5 W 2 3 1013.4 - 0.0 - - 10 - - - -
11/03:30am 17.3 W 3 4 1013.3 - 0.0 - - 10 - - - -
11/03:00am 17.8 CALM 0 0 1013.4 - 0.0 - - 10 - - - -
11/02:30am 18.1 W 2 5 1013.6 - 0.0 - - 10 - - - -
11/02:00am 18.8 W 6 6 1013.7 - 0.0 - - 10 - - - -
11/01:30am 18.4 W 3 5 1013.9 - 0.0 - - 10 - - - -
11/01:00am 18.8 W 4 4 1014.2 - 0.0 - - 10 - - - -
11/12:30am 19.1 W 3 5 1014.4 - 0.0 - - 10 - - - -
11/12:00am 19.8 WNW 1 4 1014.3 - 0.0 - - 10 - - - -
 
Date/Time
EDT
Temp

°C
Wind Pressure Rain
since 9am
mm
Weather Cloud Vis
km
Sea
Height
m
Swell
Dir
 
Speed
knots
Gust
knots
hPa Trend Height
m
Period
s
Dir
10/11:30pm 20.3 NW 4 6 1014.2 - 0.0 - - 10 - - - -
10/11:00pm 20.3 W 5 6 1014.2 - 0.0 - - 10 - - - -
10/10:30pm 20.9 NW 1 5 1014.2 - 0.0 - - 10 - - - -
10/10:00pm 21.4 WNW 5 6 1014.0 - 0.0 - - 10 - - - -
10/09:30pm 23.4 N 5 8 1013.8 - 0.0 - - 10 - - - -
10/09:00pm 23.7 NNE 7 12 1013.4 - 0.0 - - 10 - - - -
10/08:30pm 23.9 NNE 9 15 1013.1 - 0.0 - - 10 - - - -
10/08:00pm 24.3 NE 9 12 1013.0 - 0.0 - - 10 - - - -
10/07:30pm 24.8 NE 10 16 1012.5 - 0.0 - - 10 - - - -
10/07:00pm 25.3 NE 11 15 1012.1 - 0.0 - - 10 - - - -
10/06:30pm 25.7 NE 12 18 1011.7 - 0.0 - - 10 - - - -
10/06:00pm 25.9 NE 13 17 1011.5 - 0.0 - - 10 - - - -
10/05:30pm 26.6 NE 13 17 1011.5 - 0.0 - - 10 - - - -
10/05:00pm 26.5 NE 13 18 1011.5 - 0.0 - - 10 - - - -
10/04:30pm 26.7 ENE 15 19 1011.6 - 0.0 - - 10 - - - -
10/04:00pm 27.0 ENE 15 19 1011.8 - 0.0 - - 10 - - - -
10/03:30pm 26.9 ENE 15 19 1012.0 - 0.0 - - 10 - - - -
10/03:00pm 27.4 NE 15 21 1012.2 - 0.0 - - 10 - - - -
10/02:30pm 27.0 NE 16 21 1012.5 - 0.0 - - 10 - - - -
10/02:00pm 27.2 NE 16 20 1012.8 - 0.0 - - 10 - - - -
10/01:30pm 27.4 NE 14 18 1013.1 - 0.0 - - 10 - - - -
10/01:00pm 27.7 ENE 14 17 1013.2 - 0.0 - - 10 - - - -
10/12:30pm 28.5 NNE 7 11 1013.6 - 0.0 - - 10 - - - -
10/12:00pm 28.3 NNE 7 11 1014.2 - 0.0 - - 10 - - - -
10/11:30am 27.3 N 9 15 1014.8 - 0.0 - - 10 - - - -
10/11:00am 26.7 N 9 12 1015.2 - 0.0 - - 10 - - - -
10/10:30am 26.2 N 9 14 1015.5 - 0.0 - - 10 - - - -
10/10:00am 25.5 NNW 9 13 1015.8 - 0.0 - - 10 - - - -
10/09:30am 24.5 N 11 14 1015.9 - 0.0 - - 10 - - - -
10/09:00am 23.8 NNW 9 13 1016.1 - 0.0 - - 10 - - - -
10/08:30am 21.7 NNW 5 7 1016.0 - 0.0 - - 10 - - - -
10/08:00am 19.2 CALM 0 0 1016.1 - 0.0 - - 10 - - - -
10/07:30am 17.4 WNW 1 4 1016.0 - 0.0 - - 10 - - - -
10/07:00am 16.3 CALM 0 0 1015.9 - 0.0 - - 10 - - - -
10/06:30am 15.2 CALM 0 0 1015.7 - 0.0 - - 10 - - - -
10/06:00am 15.4 CALM 0 0 1015.5 - 0.0 - - 10 - - - -
10/05:30am 15.3 WNW 1 4 1015.5 - 0.0 - - 10 - - - -
10/05:00am 15.7 W 1 5 1015.6 - 0.0 - - 10 - - - -
10/04:30am 15.9 CALM 0 0 1015.8 - 0.0 - - 10 - - - -
10/04:00am 15.9 CALM 0 0 1015.8 - 0.0 - - 10 - - - -
10/03:30am 16.3 CALM 0 0 1016.1 - 0.0 - - 10 - - - -
10/03:00am 16.3 W 3 4 1016.4 - 0.0 - - 10 - - - -
10/02:30am 16.7 CALM 0 0 1016.8 - 0.0 - - 10 - - - -
10/02:00am 16.9 W 4 5 1017.1 - 0.0 - - 10 - - - -
10/01:30am 17.0 W 3 4 1017.4 - 0.0 - - 10 - - - -
10/01:00am 17.3 W 4 5 1017.8 - 0.0 - - 10 - - - -
10/12:30am 17.6 W 5 6 1018.2 - 0.0 - - 10 - - - -
10/12:00am 17.7 W 6 6 1018.6 - 0.0 - Partly cloudy 10 - - - -
 
Date/Time
EDT
Temp

°C
Wind Pressure Rain
since 9am
mm
Weather Cloud Vis
km
Sea
Height
m
Swell
Dir
 
Speed
knots
Gust
knots
hPa Trend Height
m
Period
s
Dir
09/11:30pm 17.8 W 5 5 1019.0 - 0.0 - Cloudy 10 - - - -
09/11:00pm 18.2 W 6 6 1019.3 - 0.0 - Partly cloudy 10 - - - -
09/10:30pm 18.0 W 5 6 1019.5 - 0.0 - Cloudy 10 - - - -
09/10:00pm 18.4 W 5 6 1019.5 - 0.0 - - 10 - - - -
09/09:30pm 18.4 W 6 6 1019.5 - 0.0 - - 10 - - - -
09/09:00pm 19.3 W 6 6 1019.4 - 0.0 - - 9 - - - -
09/08:30pm 20.9 SE 3 4 1019.2 - 0.0 - - 6 - - - -
09/08:00pm 21.8 SE 4 5 1019.1 - 0.0 - - 10 - - - -
09/07:30pm 22.5 SE 4 6 1019.1 - 0.0 - - 10 - - - -
09/07:00pm 23.0 E 6 8 1018.8 - 0.0 - - 10 - - - -
09/06:30pm 23.4 ESE 6 8 1018.6 - 0.0 - - 10 - - - -
09/06:00pm 23.9 E 9 12 1018.6 - 0.0 - Partly cloudy 10 - - - -
09/05:30pm 24.7 SE 9 13 1018.7 - 0.0 - - 10 - - - -
09/05:00pm 24.8 ESE 9 14 1018.7 - 0.0 - - 10 - - - -
09/04:30pm 24.8 ESE 10 16 1018.9 - 0.0 - - 10 - - - -
09/04:00pm 25.0 ESE 10 15 1019.2 - 0.0 - Partly cloudy 10 - - - -
09/03:30pm 25.4 SE 9 14 1019.5 - 0.0 - Partly cloudy 10 - - - -
09/03:00pm 25.5 SE 11 17 1019.7 - 0.0 - - 10 - - - -
09/02:30pm 25.1 SE 11 17 1019.9 - 0.0 - - 10 - - - -
09/02:00pm 25.1 SE 11 16 1020.3 - 0.0 - - 10 - - - -
09/01:30pm 25.0 ESE 13 19 1020.5 - 0.0 - - 10 - - - -
09/01:00pm 25.3 SE 11 17 1020.5 - 0.0 - - 10 - - - -
09/12:30pm 26.0 SSE 10 16 1020.7 - 0.0 - - 10 - - - -
09/12:00pm 25.3 SSE 11 15 1021.0 - 0.0 - - 10 - - - -
09/11:30am 25.0 SSE 11 15 1021.2 - 0.0 - - 10 - - - -
09/11:00am 24.6 SSE 12 17 1021.5 - 0.0 - - 10 - - - -
09/10:30am 24.6 S 13 18 1021.6 - 0.0 - Partly cloudy 10 - - - -
09/10:00am 23.9 S 13 20 1021.6 - 0.0 - Partly cloudy 10 - - - -
09/09:30am 23.6 SSE 12 16 1021.5 - 0.0 - Partly cloudy 10 - - - -
09/09:00am 22.2 S 7 10 1021.5 - 0.0 - Mostly cloudy 10 - - - -
09/08:30am 22.3 SSE 10 14 1021.1 - 0.0 - Cloudy 10 - - - -
09/08:00am 21.7 S 9 12 1020.8 - 0.0 - Partly cloudy 10 - - - -
09/07:30am 21.0 SSE 6 10 1020.5 - 0.0 - Partly cloudy 10 - - - -
09/07:00am 20.5 S 5 7 1020.2 - 0.0 - Partly cloudy 10 - - - -
09/06:30am 20.3 S 6 7 1019.9 - 0.0 - Partly cloudy 10 - - - -
09/06:00am 19.7 S 5 7 1019.6 - 0.0 - - 10 - - - -
09/05:30am 18.3 W 3 4 1019.2 - 0.0 - Partly cloudy 10 - - - -
09/05:00am 18.7 CALM 0 0 1019.1 - 0.0 - Partly cloudy 10 - - - -
09/04:30am 18.4 W 4 5 1018.9 - 0.0 - Partly cloudy 10 - - - -
09/04:00am 18.6 W 3 4 1018.9 - 0.0 - Partly cloudy 10 - - - -
09/03:30am 18.8 W 5 6 1019.0 - 0.0 - - 10 - - - -
09/03:00am 19.5 W 3 5 1019.1 - 0.0 - Cloudy 10 - - - -
09/02:30am 19.2 W 6 6 1019.2 - 0.0 - Partly cloudy 10 - - - -
09/02:00am 19.4 WNW 4 5 1019.4 - 0.0 - Partly cloudy 10 - - - -
09/01:30am 19.4 W 3 5 1019.8 - 0.0 - Partly cloudy 10 - - - -
09/01:00am 19.0 W 5 6 1019.9 - 0.0 - Partly cloudy 10 - - - -
09/12:30am 18.5 WSW 6 7 1020.0 - 0.0 - - 10 - - - -
09/12:00am 18.9 SW 4 5 1020.1 - 0.0 - - 10 - - - -
 
Date/Time
EDT
Temp

°C
Wind Pressure Rain
since 9am
mm
Weather Cloud Vis
km
Sea
Height
m
Swell
Dir
 
Speed
knots
Gust
knots
hPa Trend Height
m
Period
s
Dir
08/11:30pm 19.1 SW 4 6 1020.0 - 0.0 - - 10 - - - -
08/11:00pm 20.3 S 4 5 1020.0 - 0.0 - - 10 - - - -
08/10:30pm 20.7 S 5 6 1020.1 - 0.0 - - 10 - - - -
08/10:00pm 21.0 S 5 5 1020.1 - 0.0 - - 10 - - - -
08/09:30pm 21.3 S 5 6 1019.9 - 0.0 - Partly cloudy 10 - - - -
08/09:00pm 21.7 S 5 6 1019.5 - 0.0 - Partly cloudy 10 - - - -
08/08:30pm 22.1 S 5 6 1019.0 - 0.0 - Partly cloudy 10 - - - -
08/08:02pm 22.9 SE 4 5 1018.7 - 0.0 - Partly cloudy 10 - - - -
08/08:00pm 22.9 SE 4 5 1018.6 - 0.0 - Partly cloudy 10 - - - -
08/07:40pm 23.7 ESE 4 5 1018.4 - 0.0 - Partly cloudy 10 - - - -
08/07:30pm 23.8 E 5 7 1018.3 - 0.0 - Partly cloudy 10 - - - -
08/07:00pm 24.6 E 6 9 1018.0 - 0.0 - - 10 - - - -
08/06:30pm 25.2 ENE 7 11 1017.7 - 0.0 - - 10 - - - -
08/06:00pm 25.6 ENE 7 10 1017.6 - 0.0 - - 10 - - - -
08/05:30pm 26.0 ENE 8 11 1017.6 - 0.0 - - 10 - - - -
08/05:00pm 26.5 ENE 8 11 1017.9 - 0.0 - - 10 - - - -
08/04:30pm 26.7 E 8 11 1017.9 - 0.0 - - 10 - - - -
08/04:00pm 26.8 ENE 8 11 1017.9 - 0.0 - - 10 - - - -
08/03:30pm 26.9 NE 9 11 1018.0 - 0.0 - - 10 - - - -
08/03:00pm 26.7 ENE 9 13 1018.1 - 0.0 - - 10 - - - -
08/02:30pm 27.1 E 8 12 1018.4 - 0.0 - - 10 - - - -
08/02:00pm 26.6 E 8 11 1018.5 - 0.0 - - 10 - - - -
08/01:30pm 27.1 ESE 8 10 1018.6 - 0.0 - - 10 - - - -
08/01:00pm 27.2 NE 9 12 1018.7 - 0.0 - - 10 - - - -
08/12:30pm 26.9 NE 9 12 1018.9 - 0.0 - - 10 - - - -
08/12:00pm 26.0 NNE 9 11 1019.0 - 0.0 - - 10 - - - -
08/11:30am 26.0 NE 7 10 1019.1 - 0.0 - - 10 - - - -
08/11:00am 25.3 NNE 7 9 1019.3 - 0.0 - - 10 - - - -
08/10:30am 25.6 NE 6 9 1019.4 - 0.0 - - 10 - - - -
08/10:00am 25.6 NE 4 6 1019.4 - 0.0 - - 10 - - - -
08/09:30am 24.9 ENE 3 5 1019.3 - 0.0 - - 10 - - - -
08/09:00am 22.5 NW 3 4 1019.2 - 0.0 - - 10 - - - -
08/08:30am 20.9 WNW 4 5 1019.1 - 0.0 - - 10 - - - -
08/08:00am 19.1 CALM 0 0 1019.0 - 0.0 - - 10 - - - -
08/07:30am 17.7 CALM 0 2 1018.8 - 0.0 - - 10 - - - -
08/07:00am 16.3 W 3 4 1018.6 - 0.0 - - 10 - - - -
08/06:30am 15.7 W 4 5 1018.4 - 0.0 - - 10 - - - -
08/06:00am 15.3 W 5 5 1018.2 - 0.0 - - 10 - - - -
08/05:30am 15.2 W 3 4 1018.1 - 0.0 - - 10 - - - -

Other Formats:

Comma delimited format used in spreadsheet applications
http://www.bom.gov.au/fwo/IDN60701/IDN60701.95748.axf

JavaScript Object Notation format (JSON) in row-major order
http://www.bom.gov.au/fwo/IDN60701/IDN60701.95748.json